APA weather

Centennial Airport
Denver, Colorado, United States

Public forecast

Using degrees Fahrenheit for public forecast. Weather courtesy of forecast.io.

Current aviation weather report (METAR) for Centennial Airport

Retrieved 2019/12/08 04:53 UTC (18 minutes ago):

KAPA 080453Z 18006KT 10SM BKN220 06/M04 A2993 RMK AO2 SLP113 T00611044

Aviation forecast (TAF) for Centennial Airport

Retrieved 2019-12-08 00:24 UTC (5 hours ago):

TAF KAPA 072322Z 0800/0824 30006KT P6SM FEW150 BKN220 FM080200 21007KT P6SM BKN220 FM081900 36008KT P6SM SCT120 BKN220